気象予報士の航空気象 欧州に火山灰の猛威

*All archives   *Admin

2010.04.15 (Thu)

欧州に火山灰の猛威

14APR10アイスランド火山1



BIKF 150900Z 24010KT 9999 -RA FEW022 BKN045 OVC060 05/01 Q1025
ケプラヴィーク国際空港

いい天気。


BIRK 150900Z 25008KT 9999 VCSH FEW030 SCT032 OVC044 05/01 Q1025 RESHRA
レイキャヴィーク空港

いい天気。


2つとも、アイスランドの主要空港です。



14APR10アイスランド火山





アイスランドで噴火が続いていたのですが、大規模な噴火があり、ロンドンヒースロー空港が閉鎖したようです。

EGLL 150920Z 03009KT 340V050 9999 FEW020 09/04 Q1024
ロンドン・ヒースロー

いい天気。


どうやら、すでに成層圏に到達をしているのでしょう。


地表はいい天気でも、上空を漂う火山灰は飛行機の敵。


いきなりエンジンが全部停止してしまう事例が何件か報告されています。


の火山灰カテゴリーでも、飛行機と火山灰について、いっくつか特集があります。


ブリティッシュ・エアウェイズ9便エンジン故障事故 ウィキペディアより
ブリティッシュ・エアウェイズ9便エンジン故障事故


 
ブログランキングに参加しています。
にほんブログ村 環境ブログ 天気・気象学へ
にほんブログ村
応援クリックをおねがします。


以下、アフィリエイトサイトです。




スポンサーサイト
22:10  |  火山灰  |  TB(0)  |  CM(0)  |  EDIT  |  Top↑

コメントを投稿する


 管理者だけに表示  (非公開コメント投稿可能)

▲PageTop

この記事のトラックバックURL

→http://weathereucalyptus.blog115.fc2.com/tb.php/456-bf433a8a
この記事にトラックバックする(FC2ブログユーザー)

この記事へのトラックバック

▲PageTop

 | BLOGTOP |